Portada
METAR-TAF:

METAR-TAF

Aeroports :

Vientiane, Laos

latitud: 17-57N, longitud: 102-34E, altitud: 171 m

Observació

L'informe es va fer fa 32 minuts, a les 10:30 UTC
Vent 2 kt del Nord-Oest
Temperatura 26°C
Humitat 65%
Pressió 1016 hPa
Visibilitat: 7000 m
Escasses núvols a una alçada de 2000 ft
Escasses núvols a una alçada de 20000 ft

METAR: VLVT 151030Z 32002KT 7000 FEW020 FEW200 26/19 Q1016 NOSIG

Hora: 18:02 (11:02 UTC)

Pronòstic

L'informe es va fer fa 6 hores i 2 minuts, a les 05:00 UTC
Pronòstic vàlid del 15 a les 06 UTC al 16 a les 06 UTC
Vent 4 kt del Oest/Nord-Oest
Visibilitat: 8000 m
Escasses núvols a una alçada de 2000 ft
Escasses núvols a una alçada de 20000 ft
Temporalment
l' 15 a les 14 UTC al 15 a les 20 UTC
Visibilitat: 4000 m
Escasses núvols a una alçada de 5000 ft
Escasses núvols a una alçada de 20000 ft
boirina

TAF: VLVT 150500Z 1506/1606 30004KT 8000 FEW020 FEW200 TEMPO 1514/1520 4000 BR FEW050 FEW200

Observacions i pronòstics meteorològics de més de 4000 aeroports (METAR i TAF).

Les estacions disponibles són els punts grocs i vermells al mapa.

Posi el ratolí al punt desitjat per veure el nom de l'estació.

Feu clic per veure les observacions i els pronòstics meteorològics.

Per canviar el mapa: feu clic els botons verds amb una creu de color negre per apropar; al botó verd amb un guió per allunyar la imatge; o en les fletxes verdes per a mapes adjacents.


METAR-TAF: